Terminal Aerodrome Forecast
Issued by NWS San Angelo, TX

Home | Current Version | Previous Version | Text Only | Print | Product List | Glossary On
Versions: 1 2 3 4 5 6 7 8 9 10 11 12 13 14 15 16 17 18 19 20 21 22 23
927
FTUS44 KSJT 221329 AAA
TAFSJT
TAF AMD
KSJT 221329Z 2213/2312 01008KT P6SM SCT015
      TEMPO 2214/2215 OVC015
     FM221500 01009KT P6SM BKN250=

USA.gov is the U.S. government's official web portal to all federal, state and local government web resources and services.